This is the latest recevied weather packets stored in our database for station/object EA6AMI-5. If no packets are shown the sender has not sent any weather packets the latest 10 day(s).
| Time | Temp. | Humidity | Pressure | Rain* | Wind** | Luminosity | Snow |
|---|---|---|---|---|---|---|---|
| 1787840823 | 30° C | 63% | 1013.5 hPa | 0 mm | - | 391 W/m² | - |
| 1787840283 | 30° C | 63% | 1013.6 hPa | 0 mm | - | 496 W/m² | - |
| 1787839743 | 30° C | 61% | 1013.5 hPa | 0 mm | - | 309 W/m² | - |
| 1787839203 | 30.56° C | 60% | 1013.9 hPa | 0 mm | - | 303 W/m² | - |
| 1787838843 | 30.56° C | 59% | 1013.6 hPa | 0 mm | - | 382 W/m² | - |
| 1787838303 | 30° C | 61% | 1013.5 hPa | 0 mm | - | 385 W/m² | - |
| 1787837763 | 30.56° C | 58% | 1013.8 hPa | 0 mm | - | 309 W/m² | - |
| 1787837224 | 30° C | 60% | 1014 hPa | 0 mm | - | 524 W/m² | - |
| 1787836683 | 30.56° C | 59% | 1014 hPa | 0 mm | - | 329 W/m² | - |
| 1787836143 | 31.11° C | 54% | 1014.5 hPa | 0 mm | - | 595 W/m² | - |
| 1787835603 | 31.67° C | 46% | 1014.3 hPa | 0 mm | - | 629 W/m² | - |
| 1787835243 | 31.67° C | 53% | 1014.1 hPa | 0 mm | - | 644 W/m² | - |
| 1787834703 | 31.11° C | 55% | 1013.7 hPa | 0 mm | - | 633 W/m² | - |
| 1787834164 | 31.11° C | 55% | 1013.5 hPa | 0 mm | - | 631 W/m² | - |
| 1787833623 | 31.11° C | 56% | 1013.8 hPa | 0 mm | - | 640 W/m² | - |
| 1787833083 | 31.11° C | 56% | 1013.7 hPa | 0 mm | - | 638 W/m² | - |
| 1787832543 | 31.11° C | 53% | 1013.9 hPa | 0 mm | - | 644 W/m² | - |
| 1787832004 | 31.11° C | 53% | 1013.8 hPa | 0 mm | - | 643 W/m² | - |
| 1787831644 | 31.11° C | 51% | 1013.8 hPa | 0 mm | - | 573 W/m² | - |
| 1787831103 | 31.11° C | 50% | 1013.8 hPa | 0 mm | - | 618 W/m² | - |
| 1787830563 | 30.56° C | 57% | 1013.8 hPa | 0 mm | - | 613 W/m² | - |
| 1787830023 | 30.56° C | 55% | 1013.8 hPa | 0 mm | - | 618 W/m² | - |
| 1787829483 | 30.56° C | 58% | 1013.9 hPa | 0 mm | - | 314 W/m² | - |
| 1787828944 | 30° C | 58% | 1014.3 hPa | 0 mm | - | 601 W/m² | - |
| 1787828403 | 29.44° C | 62% | 1014.2 hPa | 0 mm | - | 582 W/m² | - |
* Rain latest hour (hover to see other rain measurements)
** Current wind speed in m/s (hover to see current wind gust speed)